createdAt,value
2023-04-17T00:00:04.934Z,99818.44
2023-04-17T00:02:40.759Z,99814.94
2023-04-17T00:05:09.194Z,99825.13
2023-04-17T00:07:41.483Z,99815.75
2023-04-17T00:10:10.406Z,99817.72
2023-04-17T00:12:37.913Z,99821.41
2023-04-17T00:15:05.913Z,99815.59
2023-04-17T00:17:33.284Z,99813.53
2023-04-17T00:20:01.438Z,99816.78
2023-04-17T00:22:28.831Z,99816.91
2023-04-17T00:24:56.416Z,99811.25
2023-04-17T00:27:23.906Z,99815.69
2023-04-17T00:29:52.251Z,99815.75
2023-04-17T00:32:19.826Z,99814.88
2023-04-17T00:34:47.462Z,99815.41
2023-04-17T00:37:14.699Z,99817.09
2023-04-17T00:39:42.180Z,99817.78
2023-04-17T00:42:09.626Z,99823.22
2023-04-17T00:44:37.089Z,99816.34
2023-04-17T00:47:04.619Z,99815.66
2023-04-17T00:49:33.992Z,99817.00
2023-04-17T00:52:01.770Z,99814.56
2023-04-17T00:54:31.985Z,99826.06
2023-04-17T00:57:01.411Z,99826.50
2023-04-17T00:59:29.807Z,99830.94
2023-04-17T01:01:56.905Z,99835.34
2023-04-17T01:04:24.263Z,99837.19
2023-04-17T01:06:53.514Z,99831.13
2023-04-17T01:09:22.039Z,99828.81
2023-04-17T01:11:49.353Z,99832.56
2023-04-17T01:14:16.944Z,99826.78
2023-04-17T01:16:44.960Z,99838.50
2023-04-17T01:19:15.337Z,99833.75
2023-04-17T01:21:44.877Z,99833.75
2023-04-17T01:24:12.297Z,99834.13
2023-04-17T01:26:40.374Z,99834.41
2023-04-17T01:29:07.761Z,99823.91
2023-04-17T01:31:36.285Z,99822.94
2023-04-17T01:34:03.623Z,99829.63
2023-04-17T01:36:32.046Z,99831.53
2023-04-17T01:38:59.592Z,99831.53
2023-04-17T01:41:27.115Z,99829.00
2023-04-17T01:43:54.538Z,99830.69
2023-04-17T01:46:22.098Z,99833.31
2023-04-17T01:48:49.466Z,99831.06
2023-04-17T01:51:16.932Z,99836.50
2023-04-17T01:53:44.448Z,99838.75
2023-04-17T01:56:13.948Z,99832.28
2023-04-17T01:58:41.323Z,99836.59
2023-04-17T02:01:08.892Z,99838.50
2023-04-17T02:03:37.576Z,99837.78
2023-04-17T02:06:04.904Z,99831.78
2023-04-17T02:08:34.781Z,99840.25
2023-04-17T02:11:02.570Z,99840.25
2023-04-17T02:13:29.667Z,99844.69
2023-04-17T02:15:59.275Z,99845.88
2023-04-17T02:18:28.833Z,99840.81
2023-04-17T02:20:57.047Z,99842.56
2023-04-17T02:23:24.695Z,99849.38
2023-04-17T02:25:51.962Z,99852.75
2023-04-17T02:28:19.625Z,99848.53
2023-04-17T02:30:47.028Z,99847.97
2023-04-17T02:33:14.521Z,99852.09
2023-04-17T02:35:41.971Z,99847.34
2023-04-17T02:38:09.484Z,99846.09
2023-04-17T02:40:36.828Z,99848.47
2023-04-17T02:43:04.257Z,99841.81
2023-04-17T02:45:31.740Z,99838.19
2023-04-17T02:47:59.244Z,99840.50
2023-04-17T02:50:27.615Z,99843.66
2023-04-17T02:52:55.172Z,99843.63
2023-04-17T02:55:22.658Z,99840.09
2023-04-17T02:57:50.208Z,99832.13
2023-04-17T03:00:19.490Z,99842.47
2023-04-17T03:02:47.248Z,99842.47
2023-04-17T03:05:15.297Z,99833.78
2023-04-17T03:07:43.457Z,99837.47
2023-04-17T03:10:11.978Z,99846.28
2023-04-17T03:12:40.738Z,99837.06
2023-04-17T03:15:09.185Z,99854.72
2023-04-17T03:17:37.370Z,99850.31
2023-04-17T03:20:06.309Z,99854.63
2023-04-17T03:22:34.063Z,99856.97
2023-04-17T03:25:01.413Z,99849.28
2023-04-17T03:27:28.715Z,99851.00
2023-04-17T03:29:58.912Z,99850.91
2023-04-17T03:32:26.238Z,99847.47
2023-04-17T03:34:53.754Z,99849.56
2023-04-17T03:37:21.387Z,99860.28
2023-04-17T03:39:48.551Z,99857.78
2023-04-17T03:42:16.225Z,99855.69
2023-04-17T03:44:43.596Z,99854.41
2023-04-17T03:47:11.432Z,99868.19
2023-04-17T03:49:39.054Z,99876.97
2023-04-17T03:52:06.477Z,99868.63
2023-04-17T03:54:35.935Z,99870.38
2023-04-17T03:57:05.614Z,99878.34
2023-04-17T03:59:33.420Z,99881.38
2023-04-17T04:02:00.932Z,99878.16
2023-04-17T04:04:28.347Z,99871.28
2023-04-17T04:06:57.940Z,99873.84
2023-04-17T04:09:28.287Z,99874.44
2023-04-17T04:11:55.480Z,99861.94
2023-04-17T04:14:22.943Z,99867.16
2023-04-17T04:16:50.352Z,99879.53
2023-04-17T04:19:17.931Z,99871.63
2023-04-17T04:21:45.492Z,99870.56
2023-04-17T04:24:20.578Z,99872.31
2023-04-17T04:26:49.985Z,99872.25
2023-04-17T04:29:18.252Z,99873.94
2023-04-17T04:31:47.006Z,99880.13
2023-04-17T04:34:17.341Z,99881.03
2023-04-17T04:36:50.820Z,99877.66
2023-04-17T04:39:21.548Z,99876.72
2023-04-17T04:41:52.436Z,99881.69
2023-04-17T04:44:20.611Z,99885.78
2023-04-17T04:46:50.247Z,99884.84
2023-04-17T04:49:19.672Z,99887.41
2023-04-17T04:51:47.001Z,99899.56
2023-04-17T04:54:14.361Z,99904.97
2023-04-17T04:56:45.104Z,99895.44
2023-04-17T04:59:12.572Z,99897.72
2023-04-17T05:01:40.209Z,99901.09
2023-04-17T05:04:07.429Z,99899.25
2023-04-17T05:06:35.841Z,99895.50
2023-04-17T05:09:03.316Z,99896.22
2023-04-17T05:11:31.105Z,99902.00
2023-04-17T05:13:58.241Z,99891.63
2023-04-17T05:16:26.954Z,99895.72
2023-04-17T05:18:56.143Z,99890.09
2023-04-17T05:21:23.758Z,99890.81
2023-04-17T05:23:53.271Z,99895.22
2023-04-17T05:26:23.523Z,99894.69
2023-04-17T05:28:51.648Z,99904.16
2023-04-17T05:31:19.826Z,99911.03
2023-04-17T05:33:48.295Z,99915.25
2023-04-17T05:36:16.757Z,99923.91
2023-04-17T05:38:46.058Z,99925.34
2023-04-17T05:41:13.494Z,99920.88
2023-04-17T05:43:42.986Z,99926.13
2023-04-17T05:46:10.722Z,99926.41
2023-04-17T05:48:37.807Z,99939.09
2023-04-17T05:51:05.157Z,99931.84
2023-04-17T05:53:33.646Z,99939.38
2023-04-17T05:56:02.001Z,99945.38
2023-04-17T05:58:29.326Z,99945.13
2023-04-17T06:01:06.571Z,99952.16
2023-04-17T06:03:35.061Z,99958.22
2023-04-17T06:06:02.655Z,99949.22
2023-04-17T06:08:30.097Z,99955.16
2023-04-17T06:10:57.523Z,99954.91
2023-04-17T06:13:24.889Z,99958.19
2023-04-17T06:15:52.289Z,99949.25
2023-04-17T06:18:20.831Z,99946.41
2023-04-17T06:20:49.220Z,99952.19
2023-04-17T06:23:16.906Z,99943.06
2023-04-17T06:25:46.391Z,99947.38
2023-04-17T06:28:14.708Z,99955.94
2023-04-17T06:30:42.143Z,99950.59
2023-04-17T06:33:12.657Z,99957.47
2023-04-17T06:35:42.269Z,99958.38
2023-04-17T06:38:09.967Z,99956.56
2023-04-17T06:40:38.862Z,99961.75
2023-04-17T06:43:08.079Z,99967.56
2023-04-17T06:45:35.966Z,99964.94
2023-04-17T06:48:03.116Z,99975.22
2023-04-17T06:50:30.642Z,99969.84
2023-04-17T06:52:57.936Z,99972.41
2023-04-17T06:55:27.471Z,99976.94
2023-04-17T06:57:56.970Z,99984.09
2023-04-17T07:00:24.582Z,99983.94
2023-04-17T07:02:52.039Z,99983.78
2023-04-17T07:05:19.470Z,99983.69
2023-04-17T07:07:47.185Z,99985.34
2023-04-17T07:10:16.219Z,99998.16
2023-04-17T07:12:43.763Z,100000.88
2023-04-17T07:15:11.595Z,99998.00
2023-04-17T07:17:39.196Z,99999.50
2023-04-17T07:20:08.584Z,99995.78
2023-04-17T07:22:36.127Z,99999.75
2023-04-17T07:25:04.268Z,100006.72
2023-04-17T07:27:39.619Z,100005.56
2023-04-17T07:30:08.852Z,99999.31
2023-04-17T07:32:36.706Z,100003.69
2023-04-17T07:35:04.858Z,100008.00
2023-04-17T07:37:35.088Z,99999.19
2023-04-17T07:40:04.989Z,100003.59
2023-04-17T07:42:32.153Z,100006.19
2023-04-17T07:44:59.776Z,100005.31
2023-04-17T07:47:28.250Z,100001.84
2023-04-17T07:49:58.008Z,100010.50
2023-04-17T07:52:25.706Z,100011.16
2023-04-17T07:54:54.219Z,100010.88
2023-04-17T07:57:22.533Z,100014.13
2023-04-17T07:59:49.967Z,100014.63
2023-04-17T08:02:19.057Z,100024.59
2023-04-17T08:04:47.813Z,100019.31
2023-04-17T08:07:15.482Z,100025.38
2023-04-17T08:09:44.569Z,100031.59
2023-04-17T08:12:11.907Z,100036.78
2023-04-17T08:14:42.335Z,100038.34
2023-04-17T08:17:10.187Z,100042.44
2023-04-17T08:19:37.333Z,100036.25
2023-04-17T08:22:06.473Z,100043.16
2023-04-17T08:24:33.803Z,100034.09
2023-04-17T08:27:01.810Z,100032.94
2023-04-17T08:29:29.278Z,100034.69
2023-04-17T08:32:12.623Z,100044.00
2023-04-17T08:34:42.996Z,100039.00
2023-04-17T08:37:10.544Z,100036.84
2023-04-17T08:39:37.949Z,100035.91
2023-04-17T08:42:18.179Z,100039.13
2023-04-17T08:44:46.474Z,100027.59
2023-04-17T08:47:13.989Z,100041.63
2023-04-17T08:49:44.134Z,100035.28
2023-04-17T08:52:12.407Z,100038.59
2023-04-17T08:54:40.632Z,100033.72
2023-04-17T08:57:08.200Z,100031.72
2023-04-17T08:59:35.595Z,100030.31
2023-04-17T09:02:08.635Z,100039.94
2023-04-17T09:04:38.084Z,100037.97
2023-04-17T09:07:07.100Z,100037.63
2023-04-17T09:09:54.020Z,100036.47
2023-04-17T09:12:23.319Z,100037.84
2023-04-17T09:14:51.164Z,100045.31
2023-04-17T09:17:20.579Z,100042.38
2023-04-17T09:20:12.476Z,100046.81
2023-04-17T09:22:45.201Z,100038.78
2023-04-17T09:25:20.874Z,100044.56
2023-04-17T09:27:50.403Z,100044.56
2023-04-17T09:30:17.870Z,100046.06
2023-04-17T09:32:45.204Z,100041.00
2023-04-17T09:35:26.263Z,100051.88
2023-04-17T09:37:59.668Z,100046.44
2023-04-17T09:40:42.661Z,100037.81
2023-04-17T09:43:11.101Z,100042.19
2023-04-17T09:45:42.670Z,100043.59
2023-04-17T09:48:12.252Z,100038.09
2023-04-17T09:50:41.218Z,100047.78
2023-04-17T09:53:09.507Z,100045.94
2023-04-17T09:55:39.192Z,100046.00
2023-04-17T09:58:08.328Z,100054.28
2023-04-17T10:00:36.787Z,100053.72
2023-04-17T10:03:07.679Z,100055.69
2023-04-17T10:05:36.871Z,100063.22
2023-04-17T10:08:05.098Z,100068.94
2023-04-17T10:10:38.628Z,100056.78
2023-04-17T10:13:12.844Z,100058.63
2023-04-17T10:15:40.193Z,100054.69
2023-04-17T10:18:24.966Z,100046.56
2023-04-17T10:20:54.206Z,100047.31
2023-04-17T10:23:36.811Z,100037.44
2023-04-17T10:26:26.038Z,100046.16
2023-04-17T10:28:55.120Z,100035.72
2023-04-17T10:31:25.820Z,100027.22
2023-04-17T10:33:54.657Z,100026.97
2023-04-17T10:36:40.797Z,100030.81
2023-04-17T10:39:16.612Z,100038.78
2023-04-17T10:42:06.133Z,100024.84
2023-04-17T10:44:40.124Z,100023.06
2023-04-17T10:49:58.743Z,100030.72
2023-04-17T10:52:43.361Z,100021.41
2023-04-17T10:55:22.266Z,100028.22
2023-04-17T10:58:05.142Z,100023.63
2023-04-17T11:00:37.489Z,100015.53
2023-04-17T11:03:06.997Z,100022.13
2023-04-17T11:05:36.198Z,100026.38
2023-04-17T11:08:03.757Z,100022.19
2023-04-17T11:10:35.696Z,100015.56
2023-04-17T11:13:03.460Z,100017.22
2023-04-17T11:15:34.406Z,100017.03
2023-04-17T11:18:03.374Z,100016.22
2023-04-17T11:20:32.346Z,100023.72
2023-04-17T11:23:05.720Z,100021.13
2023-04-17T11:25:34.763Z,100018.59
2023-04-17T11:28:05.828Z,100021.47
2023-04-17T11:30:37.584Z,100025.84
2023-04-17T11:33:08.125Z,100024.63
2023-04-17T11:35:37.873Z,100029.34
2023-04-17T11:38:11.845Z,100023.94
2023-04-17T11:40:52.509Z,100017.22
2023-04-17T11:43:21.554Z,100025.75
2023-04-17T11:45:51.944Z,100024.13
2023-04-17T11:48:23.737Z,100019.50
2023-04-17T11:50:55.913Z,100018.94
2023-04-17T11:53:25.666Z,100016.31
2023-04-17T11:56:13.432Z,100017.59
2023-04-17T11:58:47.901Z,100019.72
2023-04-17T12:01:15.798Z,100015.81
2023-04-17T12:03:44.827Z,100017.78
2023-04-17T12:06:17.061Z,100014.91
2023-04-17T12:08:54.476Z,100021.19
2023-04-17T12:11:32.962Z,100018.34
2023-04-17T12:14:05.464Z,100021.25
2023-04-17T12:16:32.710Z,100019.38
2023-04-17T12:19:00.008Z,100013.34
2023-04-17T12:21:27.534Z,100007.69
2023-04-17T12:23:55.091Z,100013.69
2023-04-17T12:26:22.442Z,100005.09
2023-04-17T12:28:52.720Z,100012.63
2023-04-17T12:31:19.875Z,100016.16
2023-04-17T12:33:47.891Z,100016.72
2023-04-17T12:36:15.363Z,100011.00
2023-04-17T12:38:44.018Z,100000.53
2023-04-17T12:41:11.299Z,100006.63
2023-04-17T12:43:40.934Z,100008.09
2023-04-17T12:46:08.336Z,100008.09
2023-04-17T12:48:35.822Z,100008.63
2023-04-17T12:51:04.182Z,100011.38
2023-04-17T12:53:31.700Z,100003.75
2023-04-17T12:55:58.997Z,100014.00
2023-04-17T12:58:27.272Z,100009.41
2023-04-17T13:00:55.601Z,100014.13
2023-04-17T13:03:23.095Z,100006.09
2023-04-17T13:05:53.054Z,100006.75
2023-04-17T13:08:20.616Z,100005.69
2023-04-17T13:10:47.984Z,100000.22
2023-04-17T13:13:16.567Z,99999.00
2023-04-17T13:15:47.637Z,99986.88
2023-04-17T13:18:16.164Z,99982.47
2023-04-17T13:20:43.404Z,99993.94
2023-04-17T13:23:12.112Z,99989.41
2023-04-17T13:25:39.297Z,99989.78
2023-04-17T13:28:06.783Z,99993.50
2023-04-17T13:30:35.608Z,99971.84
2023-04-17T13:33:02.885Z,99980.47
2023-04-17T13:35:30.236Z,99971.69
2023-04-17T13:38:01.084Z,99966.47
2023-04-17T13:40:30.086Z,99961.00
2023-04-17T13:43:00.664Z,99962.78
2023-04-17T13:45:28.229Z,99964.25
2023-04-17T13:47:55.731Z,99958.66
2023-04-17T13:50:23.251Z,99963.03
2023-04-17T13:52:50.607Z,99951.72
2023-04-17T13:55:18.147Z,99962.50
2023-04-17T13:57:45.715Z,99964.31
2023-04-17T14:00:14.129Z,99957.38
2023-04-17T14:02:41.647Z,99956.78
2023-04-17T14:05:09.671Z,99950.84
2023-04-17T14:07:38.155Z,99958.34
2023-04-17T14:10:06.246Z,99952.38
2023-04-17T14:12:33.413Z,99954.56
2023-04-17T14:15:01.812Z,99950.72
2023-04-17T14:17:29.601Z,99954.50
2023-04-17T14:19:56.760Z,99947.22
2023-04-17T14:22:24.042Z,99942.78
2023-04-17T14:24:53.234Z,99945.28
2023-04-17T14:27:21.607Z,99935.81
2023-04-17T14:29:48.683Z,99946.78
2023-04-17T14:32:16.128Z,99949.22
2023-04-17T14:34:43.583Z,99950.63
2023-04-17T14:37:11.092Z,99955.34
2023-04-17T14:39:38.532Z,99975.50
2023-04-17T14:42:06.090Z,99971.84
2023-04-17T14:44:35.746Z,99966.31
2023-04-17T14:47:03.173Z,99964.19
2023-04-17T14:49:30.867Z,99961.72
2023-04-17T14:51:57.938Z,99977.91
2023-04-17T14:54:25.517Z,99978.63
2023-04-17T14:56:52.934Z,99967.50
2023-04-17T14:59:20.362Z,99973.81
2023-04-17T15:01:47.907Z,99979.25
2023-04-17T15:04:15.356Z,99982.75
2023-04-17T15:06:43.285Z,99976.94
2023-04-17T15:09:11.113Z,99979.81
2023-04-17T15:11:38.756Z,99969.00
2023-04-17T15:14:06.395Z,99976.94
2023-04-17T15:16:34.201Z,99973.34
2023-04-17T15:19:03.463Z,99972.78
2023-04-17T15:21:31.437Z,99974.25
2023-04-17T15:23:58.832Z,99963.72
2023-04-17T15:26:27.663Z,99966.47
2023-04-17T15:28:54.754Z,99973.09
2023-04-17T15:31:22.293Z,99967.78
2023-04-17T15:33:51.716Z,99963.34
2023-04-17T15:36:19.176Z,99967.63
2023-04-17T15:38:46.741Z,99966.22
2023-04-17T15:41:15.156Z,99968.09
2023-04-17T15:43:42.553Z,99965.66
2023-04-17T15:46:10.125Z,99968.94
2023-04-17T15:48:37.474Z,99956.72
2023-04-17T15:51:05.174Z,99960.31
2023-04-17T15:53:33.051Z,99960.72
2023-04-17T15:56:01.581Z,99960.31
2023-04-17T15:58:28.849Z,99961.63
2023-04-17T16:00:56.366Z,99955.75
2023-04-17T16:03:23.863Z,99964.78
2023-04-17T16:05:57.376Z,99974.56
2023-04-17T16:08:26.021Z,99967.22
2023-04-17T16:10:54.266Z,99960.25
2023-04-17T16:13:21.754Z,99959.03
2023-04-17T16:15:49.851Z,99957.72
2023-04-17T16:18:17.141Z,99960.75
2023-04-17T16:20:44.784Z,99961.13
2023-04-17T16:23:12.106Z,99965.56
2023-04-17T16:25:39.845Z,99966.81
2023-04-17T16:28:07.992Z,99960.59
2023-04-17T16:30:35.583Z,99964.16
2023-04-17T16:33:03.026Z,99974.53
2023-04-17T16:35:30.465Z,99969.63
2023-04-17T16:37:57.866Z,99965.91
2023-04-17T16:40:26.985Z,99985.25
2023-04-17T16:42:56.399Z,99975.94
2023-04-17T16:45:23.880Z,99979.34
2023-04-17T16:47:57.492Z,99980.63
2023-04-17T16:50:25.752Z,99978.66
2023-04-17T16:52:53.339Z,99983.50
2023-04-17T16:55:20.838Z,99984.38
2023-04-17T16:57:48.353Z,99978.50
2023-04-17T17:00:15.898Z,99977.28
2023-04-17T17:02:43.652Z,99979.09
2023-04-17T17:05:11.236Z,99993.31
2023-04-17T17:07:45.096Z,99986.50
2023-04-17T17:10:12.276Z,99991.09
2023-04-17T17:12:39.746Z,99987.25
2023-04-17T17:15:09.564Z,99990.75
2023-04-17T17:17:37.101Z,99989.69
2023-04-17T17:20:04.945Z,100005.16
2023-04-17T17:22:34.794Z,100001.66
2023-04-17T17:25:03.812Z,100003.25
2023-04-17T17:27:31.141Z,100008.00
2023-04-17T17:30:00.360Z,100006.38
2023-04-17T17:32:34.287Z,100007.09
2023-04-17T17:35:02.144Z,100015.47
2023-04-17T17:37:29.799Z,100012.91
2023-04-17T17:39:57.293Z,100019.44
2023-04-17T17:42:24.561Z,100018.56
2023-04-17T17:44:51.920Z,100024.22
2023-04-17T17:47:19.749Z,100025.78
2023-04-17T17:49:48.317Z,100030.72
2023-04-17T17:52:17.287Z,100028.16
2023-04-17T17:54:44.923Z,100024.00
2023-04-17T17:57:13.643Z,100036.22
2023-04-17T17:59:42.081Z,100029.31
2023-04-17T18:02:10.073Z,100033.50
2023-04-17T18:04:37.492Z,100039.03
2023-04-17T18:07:05.176Z,100036.22
2023-04-17T18:09:32.893Z,100039.66
2023-04-17T18:12:00.772Z,100039.28
2023-04-17T18:14:28.506Z,100047.25
2023-04-17T18:16:58.371Z,100043.63
2023-04-17T18:19:27.609Z,100048.59
2023-04-17T18:21:55.617Z,100045.91
2023-04-17T18:24:23.548Z,100043.44
2023-04-17T18:26:51.795Z,100041.75
2023-04-17T18:29:19.852Z,100045.16
2023-04-17T18:31:47.646Z,100049.25
2023-04-17T18:34:18.614Z,100051.91
2023-04-17T18:36:52.366Z,100051.91
2023-04-17T18:39:21.387Z,100049.97
2023-04-17T18:41:50.060Z,100052.72
2023-04-17T18:44:19.430Z,100053.97
2023-04-17T18:46:53.684Z,100053.97
2023-04-17T18:49:22.909Z,100043.03
2023-04-17T18:51:50.789Z,100055.53
2023-04-17T18:54:18.772Z,100043.16
2023-04-17T18:56:48.004Z,100056.69
2023-04-17T18:59:16.431Z,100053.97
2023-04-17T19:01:44.603Z,100047.03
2023-04-17T19:04:12.679Z,100055.06
2023-04-17T19:06:41.293Z,100053.94
2023-04-17T19:09:09.306Z,100058.34
2023-04-17T19:11:37.346Z,100058.31
2023-04-17T19:14:05.520Z,100061.13
2023-04-17T19:16:33.559Z,100062.59
2023-04-17T19:19:02.573Z,100060.03
2023-04-17T19:21:32.407Z,100064.66
2023-04-17T19:24:01.651Z,100062.31
2023-04-17T19:26:29.324Z,100061.22
2023-04-17T19:28:59.019Z,100063.91
2023-04-17T19:31:28.283Z,100053.31
2023-04-17T19:33:57.860Z,100057.75
2023-04-17T19:36:27.568Z,100055.00
2023-04-17T19:39:01.282Z,100058.00
2023-04-17T19:41:31.210Z,100059.63
2023-04-17T19:43:58.947Z,100055.56
2023-04-17T19:46:28.165Z,100062.88
2023-04-17T19:48:56.456Z,100053.94
2023-04-17T19:51:28.209Z,100051.28
2023-04-17T19:53:56.516Z,100054.50
2023-04-17T19:56:25.387Z,100047.97
2023-04-17T19:58:53.004Z,100058.91
2023-04-17T20:01:20.767Z,100056.69
2023-04-17T20:03:48.218Z,100055.81
2023-04-17T20:06:16.965Z,100048.31
2023-04-17T20:08:48.183Z,100049.00
2023-04-17T20:11:16.940Z,100047.97
2023-04-17T20:13:44.360Z,100055.22
2023-04-17T20:16:12.339Z,100048.94
2023-04-17T20:18:50.100Z,100050.03
2023-04-17T20:21:17.914Z,100054.75
2023-04-17T20:23:45.151Z,100052.00
2023-04-17T20:26:12.682Z,100061.16
2023-04-17T20:28:40.558Z,100053.47
2023-04-17T20:31:10.525Z,100051.00
2023-04-17T20:33:37.884Z,100053.03
2023-04-17T20:36:06.477Z,100053.03
2023-04-17T20:38:34.094Z,100051.34
2023-04-17T20:41:01.754Z,100059.19
2023-04-17T20:43:33.197Z,100057.47
2023-04-17T20:46:03.121Z,100069.09
2023-04-17T20:48:31.089Z,100060.72
2023-04-17T20:51:02.240Z,100061.03
2023-04-17T20:53:29.920Z,100059.28
2023-04-17T20:55:58.143Z,100071.22
2023-04-17T20:58:25.713Z,100075.31
2023-04-17T21:01:01.308Z,100069.91
2023-04-17T21:03:31.336Z,100076.16
2023-04-17T21:05:59.136Z,100077.78
2023-04-17T21:08:26.889Z,100083.06
2023-04-17T21:11:01.417Z,100083.00
2023-04-17T21:13:28.917Z,100078.66
2023-04-17T21:16:02.630Z,100077.78
2023-04-17T21:18:29.616Z,100081.13
2023-04-17T21:20:56.723Z,100074.97
2023-04-17T21:23:24.291Z,100077.97
2023-04-17T21:25:53.799Z,100070.97
2023-04-17T21:28:22.286Z,100077.34
2023-04-17T21:30:51.654Z,100082.06
2023-04-17T21:33:19.279Z,100077.09
2023-04-17T21:35:46.612Z,100073.50
2023-04-17T21:38:14.583Z,100072.66
2023-04-17T21:40:51.011Z,100077.28
2023-04-17T21:43:19.856Z,100074.38
2023-04-17T21:45:47.346Z,100073.47
2023-04-17T21:48:16.131Z,100072.66
2023-04-17T21:50:43.851Z,100071.63
2023-04-17T21:53:11.145Z,100066.31
2023-04-17T21:55:39.554Z,100071.88
2023-04-17T21:58:07.608Z,100065.59
2023-04-17T22:00:36.154Z,100065.22
2023-04-17T22:03:04.585Z,100070.50
2023-04-17T22:05:32.058Z,100068.47
2023-04-17T22:07:59.715Z,100070.69
2023-04-17T22:10:34.035Z,100066.16
2023-04-17T22:13:01.625Z,100061.66
2023-04-17T22:15:29.018Z,100064.38
2023-04-17T22:17:56.409Z,100063.28
2023-04-17T22:20:23.946Z,100066.06
2023-04-17T22:23:28.854Z,100066.22
2023-04-17T22:26:53.078Z,100068.78
2023-04-17T22:30:16.193Z,100069.13
2023-04-17T22:33:02.028Z,100068.78
2023-04-17T22:35:31.686Z,100068.13
2023-04-17T22:38:18.072Z,100067.41
2023-04-17T22:41:22.861Z,100070.94
2023-04-17T22:44:09.082Z,100069.81
2023-04-17T22:46:54.762Z,100070.13
2023-04-17T22:49:41.814Z,100075.34
2023-04-17T22:52:33.725Z,100073.63
2023-04-17T22:55:56.890Z,100078.09
2023-04-17T22:58:24.367Z,100067.25
2023-04-17T23:01:12.580Z,100071.00
2023-04-17T23:03:40.854Z,100076.91
2023-04-17T23:06:44.970Z,100077.44
2023-04-17T23:09:12.460Z,100072.41
2023-04-17T23:11:39.954Z,100068.78
2023-04-17T23:14:07.812Z,100069.75
2023-04-17T23:16:34.856Z,100065.03
2023-04-17T23:19:02.068Z,100068.53
2023-04-17T23:21:30.368Z,100060.84
2023-04-17T23:23:57.784Z,100067.84
2023-04-17T23:26:26.115Z,100054.28
2023-04-17T23:28:59.430Z,100064.09
2023-04-17T23:31:27.084Z,100060.91
2023-04-17T23:33:54.248Z,100061.53
2023-04-17T23:36:21.722Z,100065.03
2023-04-17T23:38:49.198Z,100056.34
2023-04-17T23:41:16.619Z,100063.59
2023-04-17T23:43:44.082Z,100054.28
2023-04-17T23:46:12.665Z,100055.91
2023-04-17T23:48:42.097Z,100050.34
2023-04-17T23:51:09.606Z,100051.38
2023-04-17T23:53:37.004Z,100053.81
2023-04-17T23:56:04.607Z,100051.00
2023-04-17T23:58:33.027Z,100055.63
